16 sierpnia 2022

Czas Kod Pogoda Temp. Widoczność Sufit Wiatr METAR/SPECI
6:00 am
V
63 °F 30 mi 25.000 ft 360° 360° 5 kt METAR CYUL 161000Z 36005KT 30SM FEW075 BKN250 17/13 A3006 RMK ACC1CI4 SLP182 DENSITY ALT 300FT
5:00 am
V
64 °F 15 mi - 360° 360° 5 kt METAR CYUL 160900Z 36005KT 15SM FEW075 FEW250 18/14 A3005 RMK ACC1CI1 SLP179 DENSITY ALT 300FT
4:00 am
V
64 °F 15 mi - 020° 020° 5 kt METAR CYUL 160800Z 02005KT 15SM FEW075 FEW250 18/13 A3005 RMK AC1CI1 AC TR CI TR SLP178 DENSITY ALT 300FT
3:00 am
V
66 °F 15 mi - 010° 010° 6 kt METAR CYUL 160700Z 01006KT 15SM FEW070 FEW250 19/13 A3005 RMK AC1CI1 AC TR SLP177 DENSITY ALT 500FT
2:00 am
V
66 °F 15 mi - 020° 020° 8 kt METAR CYUL 160600Z 02008KT 15SM FEW080 SCT230 19/14 A3004 RMK AC1CI3 AC TR SLP175 DENSITY ALT 500FT
1:00 am
V
66 °F 15 mi - 020° 020° 6 kt METAR CYUL 160500Z 02006KT 15SM FEW250 19/14 A3005 RMK CI1 CI TR SLP176 DENSITY ALT 600FT
12:00 am
V
66 °F 15 mi - 020° 020° 7 kt METAR CYUL 160400Z 02007KT 15SM FEW250 19/13 A3005 RMK CI1 SLP178 DENSITY ALT 600FT

15 sierpnia 2022

Czas Kod Pogoda Temp. Widoczność Sufit Wiatr METAR/SPECI
11:00 pm
V
70 °F 15 mi - 350° 350° 6 kt METAR CYUL 160300Z 35006KT 15SM FEW250 21/13 A3005 RMK CI1 CI TR SLP176 DENSITY ALT 800FT
10:00 pm
V
72 °F 15 mi - 060° 060° 3 kt METAR CYUL 160200Z 06003KT 15SM FEW250 22/12 A3004 RMK CI1 CI TR SLP173 DENSITY ALT 900FT
9:00 pm
V
72 °F 15 mi - 070° 070° 5 kt METAR CYUL 160100Z 07005KT 15SM FEW060 FEW120 SCT250 22/12 A3002 RMK CF1AC2CI1 CF TR SLP169 DENSITY ALT 900FT
8:00 pm
V
75 °F 20 mi - 270° 270° 5 kt METAR CYUL 160000Z 27005KT 230V300 20SM FEW060 FEW100 SCT250 24/12 A3000 RMK CF1AC1CI2 SLP161 DENSITY ALT 1200FT
7:00 pm
V
79 °F 30 mi - Var Var 4 kt METAR CYUL 152300Z VRB04KT 30SM FEW065 FEW090 FEW250 26/11 A2999 RMK CF1AC2CI1 CF TR CI TR SLP158 DENSITY ALT 1400FT
6:00 pm
V
81 °F 30 mi - 250° 250° 4 kt METAR CYUL 152200Z 25004KT 30SM SCT080 SCT250 27/11 A2999 RMK AC3CI1 SLP157 DENSITY ALT 1400FT
5:00 pm
V
81 °F 30 mi - 190° 190° 5 kt METAR CYUL 152100Z 19005KT 150V240 30SM FEW080 SCT250 27/12 A2999 RMK AC2CC1 SLP157 DENSITY ALT 1500FT
4:00 pm
V
81 °F 30 mi - 200° 200° 6 kt METAR CYUL 152000Z 20006KT 150V240 30SM FEW075 SCT250 27/13 A3000 RMK AC2CI1 SLP160 DENSITY ALT 1500FT
3:00 pm
V
81 °F 30 mi - 190° 190° 5 kt METAR CYUL 151900Z 19005KT 130V250 30SM SCT075 SCT250 27/13 A3001 RMK AC3CI1 CI TR SLP163 DENSITY ALT 1500FT
2:00 pm
V
81 °F 30 mi - 210° 210° 7 kt METAR CYUL 151800Z 21007KT 160V230 30SM SCT065 SCT100 SCT250 27/12 A3001 RMK CU3AC1CI1 CI TR SLP164 DENSITY ALT 1400FT
1:00 pm
V
79 °F 30 mi - 200° 200° 6 kt METAR CYUL 151700Z 20006KT 140V230 30SM FEW065 SCT250 26/11 A3002 RMK CU2CI2 SLP166 DENSITY ALT 1400FT
12:00 pm
V
77 °F 30 mi - 210° 210° 4 kt METAR CYUL 151600Z 21004KT 170V230 30SM FEW100 SCT250 25/12 A3003 RMK AC1CI2 SLP170 DENSITY ALT 1300FT
11:00 am
V
75 °F 30 mi - Var Var 3 kt METAR CYUL 151500Z VRB03KT 30SM FEW100 SCT250 24/13 A3003 RMK AC1CI4 AC TR SLP171 DENSITY ALT 1100FT
10:00 am
V
73 °F 30 mi - Var Var 3 kt METAR CYUL 151400Z VRB03KT 30SM FEW110 SCT250 23/14 A3004 RMK AC1CI4 AC TR SLP173 DENSITY ALT 1000FT
9:00 am
V
70 °F 30 mi 25.000 ft 020° 020° 3 kt METAR CYUL 151300Z 02003KT 330V120 30SM FEW100 BKN250 21/16 A3004 RMK AC1CI6 AC TR SLP173 DENSITY ALT 700FT
8:00 am
V
66 °F 30 mi 25.000 ft Var Var 2 kt METAR CYUL 151200Z VRB02KT 30SM FEW080 BKN250 19/16 A3003 RMK AC1CI5 AC TR SLP170 DENSITY ALT 600FT
7:00 am
V
64 °F 30 mi 25.000 ft 050° 050° 2 kt METAR CYUL 151100Z 05002KT 30SM FEW030 BKN250 18/15 A3002 RMK SC1CI5 SC TR SLP168 DENSITY ALT 400FT
6:00 am
V
61 °F 15 mi - Var 000° 0 kt METAR CYUL 151000Z 00000KT 15SM FEW030 FEW250 16/15 A3001 RMK SC1CI2 SC TR SLP165 DENSITY ALT 200FT
5:00 am
V
63 °F 15 mi - 260° 260° 2 kt METAR CYUL 150900Z 26002KT 15SM FEW040 FEW250 17/15 A3001 RMK SC1CI1 SC TR CI TR SLP164 DENSITY ALT 300FT
4:00 am
V
64 °F 15 mi - 150° 150° 5 kt METAR CYUL 150800Z 15005KT 15SM SKC 18/15 A3002 RMK SLP166 DENSITY ALT 400FT
3:00 am
V
61 °F 15 mi - Var 000° 0 kt METAR CYUL 150700Z 00000KT 15SM FEW060 16/13 A3002 RMK SC1 SC TR SLP166 DENSITY ALT 200FT
2:00 am
V
63 °F 15 mi - Var 000° 0 kt METAR CYUL 150600Z 00000KT 15SM FEW250 17/13 A3002 RMK CI1 CI TR SLP166 DENSITY ALT 300FT
1:00 am
V
64 °F 15 mi - 010° 010° 3 kt METAR CYUL 150500Z 01003KT 15SM FEW250 18/12 A3002 RMK CI1 CI TR SLP167 DENSITY ALT 400FT
12:00 am
V
66 °F 15 mi - Var 000° 0 kt METAR CYUL 150400Z 00000KT 15SM FEW110 FEW250 19/12 A3002 RMK AC1CI1 AC TR CI TR SLP167 DENSITY ALT 600FT

14 sierpnia 2022

Czas Kod Pogoda Temp. Widoczność Sufit Wiatr METAR/SPECI
11:00 pm
V
68 °F 15 mi - 240° 240° 3 kt METAR CYUL 150300Z 24003KT 15SM FEW250 20/12 A3002 RMK CI1 SLP166 DENSITY ALT 700FT
10:00 pm
V
70 °F 15 mi - 240° 240° 4 kt METAR CYUL 150200Z 24004KT 15SM FEW250 21/13 A3002 RMK CI1 SLP167 DENSITY ALT 800FT
9:00 pm
V
72 °F 15 mi - 250° 250° 4 kt METAR CYUL 150100Z 25004KT 15SM FEW100 SCT250 22/13 A3001 RMK AC1CI3 SLP165 DENSITY ALT 900FT
8:00 pm
V
73 °F 20 mi 25.000 ft 230° 230° 6 kt METAR CYUL 150000Z 23006KT 20SM FEW100 BKN250 23/12 A3000 RMK AC1CI4 SLP161 DENSITY ALT 1100FT
7:00 pm
V
77 °F 30 mi - 200° 200° 9 kt METAR CYUL 142300Z 20009KT 30SM FEW055 FEW250 25/10 A3000 RMK CF1CI2 CF TR SLP161 DENSITY ALT 1200FT
6:00 pm
V
79 °F 30 mi - 200° 200° 9 kt METAR CYUL 142200Z 20009KT 30SM FEW060 FEW080 FEW250 26/10 A3000 RMK CF1AC1CI1 CF TR AC TR CI TR SLP162 DENSITY ALT 1300FT
5:00 pm
V
79 °F 30 mi - 200° 200° 9 kt METAR CYUL 142100Z 20009KT 30SM FEW060 FEW080 FEW250 26/11 A3000 RMK CF1AC1CI1 CF TR CI TR SLP162 DENSITY ALT 1300FT
4:00 pm
V
79 °F 30 mi - 220° 220° 10 kt METAR CYUL 142000Z 22010KT 180V240 30SM FEW065 FEW250 26/09 A3000 RMK CU2CI1 CI TR SLP162 DENSITY ALT 1300FT
3:00 pm
V
79 °F 30 mi - 220° 220° 10 kt METAR CYUL 141900Z 22010KT 30SM FEW065 SCT250 26/09 A3001 RMK CU2CI1 SLP165 DENSITY ALT 1400FT
2:00 pm
V
77 °F 30 mi 25.000 ft 220° 220° 7 kt METAR CYUL 141800Z 22007KT 190V270 30SM SCT065 BKN250 25/12 A3002 RMK CU3CI2 SLP168 DENSITY ALT 1300FT
1:00 pm
V
77 °F 30 mi 25.000 ft 210° 210° 5 kt METAR CYUL 141700Z 21005KT 170V270 30SM SCT060 BKN250 25/15 A3003 RMK CU3CI2 SLP172 DENSITY ALT 1200FT
12:00 pm
V
73 °F 30 mi - 190° 190° 4 kt METAR CYUL 141600Z 19004KT 170V250 30SM FEW120 SCT250 23/15 A3004 RMK AC1CI3 AC TR SLP175 DENSITY ALT 1000FT
11:00 am
V
72 °F 30 mi - Var 000° 0 kt METAR CYUL 141500Z 00000KT 30SM FEW100 SCT250 22/15 A3005 RMK AC1CI3 SLP178 DENSITY ALT 900FT
10:00 am
V
70 °F 30 mi - Var Var 2 kt METAR CYUL 141400Z VRB02KT 30SM FEW080 SCT250 21/13 A3005 RMK AC1CI4 AC TR SLP179 DENSITY ALT 700FT
9:00 am
V
66 °F 30 mi 25.000 ft Var Var 2 kt METAR CYUL 141300Z VRB02KT 30SM FEW045 BKN250 19/14 A3005 RMK CF1CI5 SLP179 DENSITY ALT 600FT
8:00 am
V
64 °F 30 mi 25.000 ft 260° 260° 5 kt METAR CYUL 141200Z 26005KT 30SM FEW070 BKN250 18/14 A3006 RMK AC2CI4 SLP181 DENSITY ALT 400FT
7:00 am
V
63 °F 30 mi 25.000 ft 260° 260° 4 kt METAR CYUL 141100Z 26004KT 30SM SCT070 SCT120 BKN250 17/15 A3005 RMK AC3AC1CI3 AC TR SLP179 DENSITY ALT 300FT
Starsze dane

My i osoby trzecie śledzimy twoje zachowanie w internecie na naszej stronie za pomocą plików cookie. Jeśli kontynuujesz, zakładamy, że zgadzasz się z naszą polityką plików cookie. Dowiedz się więcej